Time,TemperatureF,DewpointF,PressureIn,WindDirection,WindDirectionDegrees,WindSpeedMPH,WindSpeedGustMPH,Humidity,HourlyPrecipIn,Conditions,Clouds,dailyrainin,SoftwareType,DateUTC
2013-06-06 00:03:00,55.0,51.0,30.33,West,265,0.0,1.0,86,-99.99,,,-99.99,,2013-06-06 04:03:00,
2013-06-06 00:13:00,55.0,51.0,30.33,West,265,0.0,1.0,86,-99.99,,,-99.99,,2013-06-06 04:13:00,
2013-06-06 00:23:00,55.0,51.0,30.33,WSW,256,0.0,1.0,85,-99.99,,,-99.99,,2013-06-06 04:23:00,
2013-06-06 00:33:00,55.0,51.0,30.33,SSW,193,0.0,1.0,86,-99.99,,,-99.99,,2013-06-06 04:33:00,
2013-06-06 00:42:00,55.0,51.0,30.33,SSW,193,0.0,1.0,86,-99.99,,,-99.99,,2013-06-06 04:42:00,
2013-06-06 00:53:00,55.0,51.0,30.33,ESE,120,0.0,1.0,87,-99.99,,,-99.99,,2013-06-06 04:53:00,
2013-06-06 01:02:00,55.0,51.0,30.33,ESE,120,0.0,1.0,87,-99.99,,,-99.99,,2013-06-06 05:02:00,
2013-06-06 01:12:00,55.0,51.0,30.33,ESE,120,0.0,1.0,87,-99.99,,,-99.99,,2013-06-06 05:12:00,
2013-06-06 01:23:00,55.0,52.0,30.32,SE,133,0.0,1.0,88,-99.99,,,-99.99,,2013-06-06 05:23:00,
2013-06-06 01:32:00,54.0,51.0,30.33,South,170,0.0,2.0,90,-99.99,,,-99.99,,2013-06-06 05:32:00,
2013-06-06 01:42:00,54.0,51.0,30.33,South,170,0.0,2.0,90,-99.99,,,-99.99,,2013-06-06 05:42:00,
2013-06-06 01:52:00,54.0,51.0,30.32,SSE,158,0.0,1.0,90,-99.99,,,-99.99,,2013-06-06 05:52:00,
2013-06-06 02:02:00,53.0,50.0,30.32,SSE,158,0.0,1.0,90,-99.99,,,-99.99,,2013-06-06 06:02:00,
2013-06-06 02:12:00,53.0,50.0,30.32,SSE,158,0.0,1.0,90,-99.99,,,-99.99,,2013-06-06 06:12:00,
2013-06-06 02:22:00,53.0,50.0,30.32,SSE,158,0.0,0.0,91,-99.99,,,-99.99,,2013-06-06 06:22:00,
2013-06-06 02:32:00,53.0,51.0,30.32,SE,136,0.0,1.0,92,-99.99,,,-99.99,,2013-06-06 06:32:00,
2013-06-06 02:42:00,53.0,51.0,30.32,SE,136,0.0,1.0,92,-99.99,,,-99.99,,2013-06-06 06:42:00,
2013-06-06 02:52:00,53.0,51.0,30.32,SSE,148,0.0,1.0,92,-99.99,,,-99.99,,2013-06-06 06:52:00,
2013-06-06 03:02:00,53.0,51.0,30.32,SSE,150,0.0,1.0,93,-99.99,,,-99.99,,2013-06-06 07:02:00,
2013-06-06 03:12:00,53.0,51.0,30.32,SSE,150,0.0,1.0,93,-99.99,,,-99.99,,2013-06-06 07:12:00,
2013-06-06 03:22:00,53.0,51.0,30.32,SSE,150,0.0,1.0,93,-99.99,,,-99.99,,2013-06-06 07:22:00,
2013-06-06 03:32:00,53.0,51.0,30.32,SSE,150,0.0,0.0,93,-99.99,,,-99.99,,2013-06-06 07:32:00,
2013-06-06 03:42:00,53.0,51.0,30.32,SSE,150,0.0,0.0,93,-99.99,,,-99.99,,2013-06-06 07:42:00,
2013-06-06 03:52:00,53.0,51.0,30.32,SSE,149,0.0,0.0,93,-99.99,,,-99.99,,2013-06-06 07:52:00,
2013-06-06 04:02:00,54.0,52.0,30.32,SSE,149,0.0,0.0,93,-99.99,,,-99.99,,2013-06-06 08:02:00,
2013-06-06 04:12:00,54.0,52.0,30.32,SSE,149,0.0,0.0,93,-99.99,,,-99.99,,2013-06-06 08:12:00,
2013-06-06 04:22:00,55.0,53.0,30.32,SSE,155,0.0,0.0,94,-99.99,,,-99.99,,2013-06-06 08:22:00,
2013-06-06 04:32:00,55.0,53.0,30.32,SE,146,0.0,1.0,94,-99.99,,,-99.99,,2013-06-06 08:32:00,
2013-06-06 04:42:00,55.0,53.0,30.32,SSE,156,0.0,2.0,94,-99.99,,,-99.99,,2013-06-06 08:42:00,
2013-06-06 04:52:00,55.0,53.0,30.32,SSE,156,0.0,2.0,94,-99.99,,,-99.99,,2013-06-06 08:52:00,
2013-06-06 05:02:00,55.0,53.0,30.32,SSE,155,0.0,0.0,94,-99.99,,,-99.99,,2013-06-06 09:02:00,
2013-06-06 05:12:00,55.0,53.0,30.32,SSE,155,0.0,0.0,94,-99.99,,,-99.99,,2013-06-06 09:12:00,
2013-06-06 05:22:00,56.0,54.0,30.32,SSE,155,0.0,0.0,94,-99.99,,,-99.99,,2013-06-06 09:22:00,
2013-06-06 05:33:00,56.0,54.0,30.33,SSE,155,0.0,0.0,94,-99.99,,,-99.99,,2013-06-06 09:33:00,
2013-06-06 05:43:00,56.0,54.0,30.33,SSE,155,0.0,0.0,94,-99.99,,,-99.99,,2013-06-06 09:43:00,
2013-06-06 05:53:00,56.0,54.0,30.32,SSE,155,0.0,0.0,94,-99.99,,,-99.99,,2013-06-06 09:53:00,
2013-06-06 06:03:00,56.0,54.0,30.32,SSE,155,0.0,0.0,94,-99.99,,,-99.99,,2013-06-06 10:03:00,
2013-06-06 06:12:00,56.0,54.0,30.32,SSE,155,0.0,0.0,94,-99.99,,,-99.99,,2013-06-06 10:12:00,
2013-06-06 06:23:00,56.0,54.0,30.32,SSE,157,0.0,0.0,94,-99.99,,,-99.99,,2013-06-06 10:23:00,
2013-06-06 06:33:00,56.0,54.0,30.32,SSE,155,0.0,0.0,94,-99.99,,,-99.99,,2013-06-06 10:33:00,
2013-06-06 06:42:00,56.0,54.0,30.32,SSE,155,0.0,0.0,94,-99.99,,,-99.99,,2013-06-06 10:42:00,
2013-06-06 06:52:00,57.0,55.0,30.33,SSE,161,0.0,1.0,94,-99.99,,,-99.99,,2013-06-06 10:52:00,
2013-06-06 07:02:00,57.0,55.0,30.33,SSE,163,0.0,1.0,94,-99.99,,,-99.99,,2013-06-06 11:02:00,
2013-06-06 07:12:00,57.0,55.0,30.33,SSE,163,0.0,1.0,94,-99.99,,,-99.99,,2013-06-06 11:12:00,
2013-06-06 07:23:00,57.0,55.0,30.33,SSE,163,0.0,1.0,94,-99.99,,,-99.99,,2013-06-06 11:23:00,
2013-06-06 07:32:00,57.0,55.0,30.34,SSE,160,0.0,2.0,94,-99.99,,,-99.99,,2013-06-06 11:32:00,
2013-06-06 07:42:00,57.0,55.0,30.34,SSE,160,0.0,2.0,94,-99.99,,,-99.99,,2013-06-06 11:42:00,
2013-06-06 07:52:00,57.0,55.0,30.34,SSE,160,0.0,2.0,94,-99.99,,,-99.99,,2013-06-06 11:52:00,
2013-06-06 08:03:00,58.0,56.0,30.34,SW,218,0.0,1.0,94,-99.99,,,-99.99,,2013-06-06 12:03:00,
2013-06-06 08:13:00,58.0,56.0,30.34,SW,218,0.0,1.0,94,-99.99,,,-99.99,,2013-06-06 12:13:00,
2013-06-06 08:23:00,58.0,56.0,30.34,SSE,166,1.0,4.0,94,-99.99,,,-99.99,,2013-06-06 12:23:00,
2013-06-06 08:33:00,58.0,56.0,30.34,South,191,0.0,4.0,94,-99.99,,,-99.99,,2013-06-06 12:33:00,
2013-06-06 08:43:00,59.0,57.0,30.33,East,101,1.0,4.0,94,-99.99,,,-99.99,,2013-06-06 12:43:00,
2013-06-06 08:53:00,59.0,57.0,30.33,East,101,1.0,4.0,94,-99.99,,,-99.99,,2013-06-06 12:53:00,
2013-06-06 09:03:00,59.0,57.0,30.33,South,174,0.0,3.0,92,-99.99,,,-99.99,,2013-06-06 13:03:00,
2013-06-06 09:13:00,59.0,57.0,30.33,South,174,0.0,3.0,92,-99.99,,,-99.99,,2013-06-06 13:13:00,
2013-06-06 09:23:00,61.0,58.0,30.33,SE,145,0.0,2.0,90,-99.99,,,-99.99,,2013-06-06 13:23:00,
2013-06-06 09:33:00,63.0,58.0,30.33,SE,142,1.0,3.0,85,-99.99,,,-99.99,,2013-06-06 13:33:00,
2013-06-06 09:43:00,63.0,58.0,30.33,SE,142,1.0,3.0,85,-99.99,,,-99.99,,2013-06-06 13:43:00,
2013-06-06 09:52:00,63.0,58.0,30.33,SE,142,1.0,3.0,85,-99.99,,,-99.99,,2013-06-06 13:52:00,
2013-06-06 10:03:00,65.0,59.0,30.32,SW,229,0.0,3.0,82,-99.99,,,-99.99,,2013-06-06 14:03:00,
2013-06-06 10:13:00,65.0,59.0,30.32,SW,229,0.0,3.0,82,-99.99,,,-99.99,,2013-06-06 14:13:00,
2013-06-06 10:23:00,65.0,59.0,30.32,SW,229,0.0,3.0,82,-99.99,,,-99.99,,2013-06-06 14:23:00,
2013-06-06 10:33:00,67.0,59.0,30.33,SE,139,1.0,3.0,75,-99.99,,,-99.99,,2013-06-06 14:33:00,
2013-06-06 10:43:00,67.0,59.0,30.33,SE,139,1.0,3.0,75,-99.99,,,-99.99,,2013-06-06 14:43:00,
2013-06-06 10:53:00,67.0,58.0,30.32,South,169,1.0,5.0,74,-99.99,,,-99.99,,2013-06-06 14:53:00,
2013-06-06 11:03:00,67.0,58.0,30.32,East,79,1.0,4.0,74,-99.99,,,-99.99,,2013-06-06 15:03:00,
2013-06-06 11:13:00,67.0,58.0,30.32,East,79,1.0,4.0,74,-99.99,,,-99.99,,2013-06-06 15:13:00,
2013-06-06 11:23:00,68.0,59.0,30.32,SSE,158,2.0,6.0,73,-99.99,,,-99.99,,2013-06-06 15:23:00,
2013-06-06 11:33:00,68.0,58.0,30.32,ESE,120,2.0,6.0,70,-99.99,,,-99.99,,2013-06-06 15:33:00,
2013-06-06 11:43:00,68.0,58.0,30.32,ESE,120,2.0,6.0,70,-99.99,,,-99.99,,2013-06-06 15:43:00,
2013-06-06 11:53:00,69.0,55.0,30.32,WNW,302,2.0,7.0,61,-99.99,,,-99.99,,2013-06-06 15:53:00,
2013-06-06 12:03:00,70.0,53.0,30.32,SE,142,2.0,7.0,54,-99.99,,,-99.99,,2013-06-06 16:03:00,
2013-06-06 12:13:00,70.0,53.0,30.32,SE,142,2.0,7.0,54,-99.99,,,-99.99,,2013-06-06 16:13:00,
2013-06-06 12:23:00,70.0,53.0,30.32,South,176,1.0,7.0,55,-99.99,,,-99.99,,2013-06-06 16:23:00,
2013-06-06 12:33:00,70.0,53.0,30.32,South,176,1.0,7.0,55,-99.99,,,-99.99,,2013-06-06 16:33:00,
2013-06-06 12:44:00,70.0,53.0,30.32,South,176,1.0,7.0,55,-99.99,,,-99.99,,2013-06-06 16:44:00,
2013-06-06 12:53:00,69.0,56.0,30.32,SSW,210,2.0,8.0,63,-99.99,,,-99.99,,2013-06-06 16:53:00,
2013-06-06 13:03:00,69.0,55.0,30.32,SSW,203,2.0,9.0,62,-99.99,,,-99.99,,2013-06-06 17:03:00,
2013-06-06 13:13:00,69.0,55.0,30.32,SSW,203,2.0,9.0,62,-99.99,,,-99.99,,2013-06-06 17:13:00,
2013-06-06 13:23:00,67.0,55.0,30.31,SE,136,2.0,8.0,66,-99.99,,,-99.99,,2013-06-06 17:23:00,
2013-06-06 13:33:00,67.0,56.0,30.31,NE,56,2.0,8.0,67,-99.99,,,-99.99,,2013-06-06 17:33:00,
2013-06-06 13:43:00,67.0,56.0,30.31,NE,56,2.0,8.0,67,-99.99,,,-99.99,,2013-06-06 17:43:00,
2013-06-06 13:52:00,67.0,57.0,30.31,South,169,2.0,8.0,70,-99.99,,,-99.99,,2013-06-06 17:52:00,
2013-06-06 14:03:00,67.0,56.0,30.30,SSE,158,2.0,8.0,69,-99.99,,,-99.99,,2013-06-06 18:03:00,
2013-06-06 14:13:00,67.0,56.0,30.30,SSE,158,2.0,8.0,69,-99.99,,,-99.99,,2013-06-06 18:13:00,
2013-06-06 14:23:00,67.0,57.0,30.29,ESE,123,2.0,9.0,71,-99.99,,,-99.99,,2013-06-06 18:23:00,
2013-06-06 14:33:00,67.0,57.0,30.29,SW,215,2.0,9.0,70,-99.99,,,-99.99,,2013-06-06 18:33:00,
2013-06-06 14:43:00,67.0,57.0,30.29,SW,215,2.0,9.0,70,-99.99,,,-99.99,,2013-06-06 18:43:00,
2013-06-06 14:53:00,67.0,58.0,30.29,SE,143,2.0,9.0,72,-99.99,,,-99.99,,2013-06-06 18:53:00,
2013-06-06 15:03:00,66.0,58.0,30.29,ENE,77,3.0,13.0,75,-99.99,,,-99.99,,2013-06-06 19:03:00,
2013-06-06 15:13:00,66.0,58.0,30.29,ENE,77,3.0,13.0,75,-99.99,,,-99.99,,2013-06-06 19:13:00,
2013-06-06 15:23:00,66.0,57.0,30.29,ESE,117,2.0,9.0,72,-99.99,,,-99.99,,2013-06-06 19:23:00,
2013-06-06 15:43:00,66.0,56.0,30.28,South,170,3.0,12.0,70,-99.99,,,-99.99,,2013-06-06 19:43:00,
2013-06-06 15:53:00,68.0,56.0,30.29,SW,221,2.0,8.0,65,-99.99,,,-99.99,,2013-06-06 19:53:00,
2013-06-06 16:03:00,68.0,52.0,30.28,East,89,2.0,7.0,57,-99.99,,,-99.99,,2013-06-06 20:03:00,
2013-06-06 16:13:00,68.0,52.0,30.28,East,89,2.0,7.0,57,-99.99,,,-99.99,,2013-06-06 20:13:00,
2013-06-06 16:23:00,68.0,52.0,30.29,SSW,200,2.0,9.0,57,-99.99,,,-99.99,,2013-06-06 20:23:00,
2013-06-06 16:33:00,67.0,52.0,30.29,East,96,2.0,9.0,59,-99.99,,,-99.99,,2013-06-06 20:33:00,
2013-06-06 16:43:00,67.0,52.0,30.29,East,96,2.0,9.0,59,-99.99,,,-99.99,,2013-06-06 20:43:00,
2013-06-06 16:53:00,65.0,53.0,30.27,SE,140,3.0,8.0,64,-99.99,,,-99.99,,2013-06-06 20:53:00,
2013-06-06 17:03:00,64.0,53.0,30.27,East,83,2.0,8.0,68,-99.99,,,-99.99,,2013-06-06 21:03:00,
2013-06-06 17:13:00,64.0,53.0,30.27,East,83,2.0,8.0,68,-99.99,,,-99.99,,2013-06-06 21:13:00,
2013-06-06 17:23:00,64.0,54.0,30.26,SE,131,2.0,7.0,71,-99.99,,,-99.99,,2013-06-06 21:23:00,
2013-06-06 17:33:00,63.0,55.0,30.26,East,98,1.0,7.0,76,-99.99,,,-99.99,,2013-06-06 21:33:00,
2013-06-06 17:44:00,63.0,55.0,30.26,East,98,1.0,7.0,76,-99.99,,,-99.99,,2013-06-06 21:44:00,
2013-06-06 17:53:00,63.0,57.0,30.27,SSE,148,1.0,7.0,80,-99.99,,,-99.99,,2013-06-06 21:53:00,
2013-06-06 18:03:00,62.0,56.0,30.27,South,177,2.0,7.0,81,-99.99,,,-99.99,,2013-06-06 22:03:00,
2013-06-06 18:13:00,62.0,56.0,30.27,South,177,2.0,7.0,81,-99.99,,,-99.99,,2013-06-06 22:13:00,
2013-06-06 18:23:00,62.0,56.0,30.27,ENE,73,1.0,4.0,81,-99.99,,,-99.99,,2013-06-06 22:23:00,
2013-06-06 18:33:00,62.0,56.0,30.27,ENE,73,1.0,4.0,81,-99.99,,,-99.99,,2013-06-06 22:33:00,
2013-06-06 18:43:00,62.0,56.0,30.27,ENE,73,1.0,4.0,81,-99.99,,,-99.99,,2013-06-06 22:43:00,
2013-06-06 18:53:00,61.0,56.0,30.28,SSW,193,0.0,4.0,83,-99.99,,,-99.99,,2013-06-06 22:53:00,
2013-06-06 19:03:00,61.0,56.0,30.27,SSW,204,1.0,6.0,83,-99.99,,,-99.99,,2013-06-06 23:03:00,
2013-06-06 19:13:00,61.0,56.0,30.27,SSW,204,1.0,6.0,83,-99.99,,,-99.99,,2013-06-06 23:13:00,
2013-06-06 19:22:00,61.0,56.0,30.27,SSW,203,0.0,5.0,84,-99.99,,,-99.99,,2013-06-06 23:22:00,
2013-06-06 19:33:00,60.0,55.0,30.27,SW,228,0.0,5.0,85,-99.99,,,-99.99,,2013-06-06 23:33:00,
2013-06-06 19:43:00,60.0,55.0,30.27,SW,228,0.0,5.0,85,-99.99,,,-99.99,,2013-06-06 23:43:00,
2013-06-06 19:52:00,60.0,55.0,30.27,SE,126,0.0,2.0,85,-99.99,,,-99.99,,2013-06-06 23:52:00,
2013-06-06 20:02:00,60.0,55.0,30.27,West,281,0.0,4.0,85,-99.99,,,-99.99,,2013-06-07 00:02:00,
2013-06-06 20:13:00,60.0,55.0,30.27,West,281,0.0,4.0,85,-99.99,,,-99.99,,2013-06-07 00:13:00,
2013-06-06 20:22:00,60.0,55.0,30.27,West,281,0.0,4.0,85,-99.99,,,-99.99,,2013-06-07 00:22:00,
2013-06-06 20:32:00,59.0,55.0,30.27,ESE,122,0.0,1.0,88,-99.99,,,-99.99,,2013-06-07 00:32:00,
2013-06-06 20:42:00,59.0,55.0,30.27,ESE,122,0.0,1.0,88,-99.99,,,-99.99,,2013-06-07 00:42:00,
2013-06-06 20:52:00,59.0,55.0,30.27,ESE,122,0.0,1.0,88,-99.99,,,-99.99,,2013-06-07 00:52:00,
2013-06-06 21:03:00,57.0,54.0,30.25,ESE,110,0.0,1.0,90,-99.99,,,-99.99,,2013-06-07 01:03:00,
2013-06-06 21:12:00,57.0,54.0,30.25,ESE,110,0.0,1.0,90,-99.99,,,-99.99,,2013-06-07 01:12:00,
2013-06-06 21:22:00,57.0,54.0,30.26,SE,145,0.0,1.0,91,-99.99,,,-99.99,,2013-06-07 01:22:00,
2013-06-06 21:32:00,56.0,53.0,30.25,ESE,108,0.0,1.0,91,-99.99,,,-99.99,,2013-06-07 01:32:00,
2013-06-06 21:42:00,56.0,53.0,30.25,ESE,108,0.0,1.0,91,-99.99,,,-99.99,,2013-06-07 01:42:00,
2013-06-06 21:52:00,56.0,53.0,30.24,ESE,105,0.0,2.0,91,-99.99,,,-99.99,,2013-06-07 01:52:00,
2013-06-06 22:02:00,56.0,53.0,30.24,East,96,0.0,1.0,91,-99.99,,,-99.99,,2013-06-07 02:02:00,
2013-06-06 22:12:00,56.0,53.0,30.24,East,96,0.0,1.0,91,-99.99,,,-99.99,,2013-06-07 02:12:00,
2013-06-06 22:22:00,56.0,53.0,30.24,East,96,0.0,4.0,91,-99.99,,,-99.99,,2013-06-07 02:22:00,
2013-06-06 22:32:00,56.0,53.0,30.25,SSW,201,0.0,2.0,91,-99.99,,,-99.99,,2013-06-07 02:32:00,
2013-06-06 22:42:00,56.0,53.0,30.25,SSW,201,0.0,2.0,91,-99.99,,,-99.99,,2013-06-07 02:42:00,
2013-06-06 22:52:00,56.0,53.0,30.25,SSW,201,0.0,2.0,91,-99.99,,,-99.99,,2013-06-07 02:52:00,
2013-06-06 23:02:00,56.0,54.0,30.25,SSW,197,0.0,2.0,92,-99.99,,,-99.99,,2013-06-07 03:02:00,
2013-06-06 23:12:00,56.0,54.0,30.25,SSW,197,0.0,2.0,92,-99.99,,,-99.99,,2013-06-07 03:12:00,
2013-06-06 23:22:00,56.0,54.0,30.25,South,172,0.0,2.0,92,-99.99,,,-99.99,,2013-06-07 03:22:00,
2013-06-06 23:33:00,56.0,54.0,30.25,South,172,0.0,0.0,93,-99.99,,,-99.99,,2013-06-07 03:33:00,
2013-06-06 23:43:00,56.0,54.0,30.25,South,172,0.0,0.0,93,-99.99,,,-99.99,,2013-06-07 03:43:00,
2013-06-06 23:53:00,56.0,54.0,30.24,South,172,0.0,0.0,93,-99.99,,,-99.99,,2013-06-07 03:53:00,